sensor_id;sensor_type;location;lat;lon;timestamp;pressure;altitude;pressure_sealevel;temperature;humidity
77979;BME280;67169;50.268;8.694;2024-03-17T00:02:22;100471.00;;;5.34;83.39
77979;BME280;67169;50.268;8.694;2024-03-17T00:04:49;100466.59;;;5.27;83.96
77979;BME280;67169;50.268;8.694;2024-03-17T00:07:16;100461.28;;;5.19;84.29
77979;BME280;67169;50.268;8.694;2024-03-17T00:09:41;100462.22;;;5.11;84.29
77979;BME280;67169;50.268;8.694;2024-03-17T00:12:08;100457.81;;;5.05;84.32
77979;BME280;67169;50.268;8.694;2024-03-17T00:14:34;100458.75;;;4.96;84.30
77979;BME280;67169;50.268;8.694;2024-03-17T00:17:01;100461.41;;;4.92;83.86
77979;BME280;67169;50.268;8.694;2024-03-17T00:19:26;100440.19;;;4.75;82.64
77979;BME280;67169;50.268;8.694;2024-03-17T00:21:54;100434.78;;;4.87;81.12
77979;BME280;67169;50.268;8.694;2024-03-17T00:24:20;100432.09;;;4.90;80.16
77979;BME280;67169;50.268;8.694;2024-03-17T00:26:46;100425.00;;;4.92;79.40
77979;BME280;67169;50.268;8.694;2024-03-17T00:29:12;100419.63;;;4.95;78.69
77979;BME280;67169;50.268;8.694;2024-03-17T00:31:39;100418.75;;;4.96;78.04
77979;BME280;67169;50.268;8.694;2024-03-17T00:34:05;100411.63;;;5.00;77.53
77979;BME280;67169;50.268;8.694;2024-03-17T00:36:31;100405.41;;;5.03;77.11
77979;BME280;67169;50.268;8.694;2024-03-17T00:38:59;100406.31;;;4.94;77.10
77979;BME280;67169;50.268;8.694;2024-03-17T00:41:25;100402.78;;;4.92;77.12
77979;BME280;67169;50.268;8.694;2024-03-17T00:43:52;100407.22;;;4.96;77.16
77979;BME280;67169;50.268;8.694;2024-03-17T00:46:19;100393.88;;;4.96;77.10
77979;BME280;67169;50.268;8.694;2024-03-17T00:48:47;100399.22;;;4.93;77.34
77979;BME280;67169;50.268;8.694;2024-03-17T00:51:14;100404.56;;;4.93;77.46
77979;BME280;67169;50.268;8.694;2024-03-17T00:53:39;100399.25;;;4.90;77.56
77979;BME280;67169;50.268;8.694;2024-03-17T00:56:07;100389.44;;;4.92;77.31
77979;BME280;67169;50.268;8.694;2024-03-17T00:58:33;100383.25;;;4.87;77.25
77979;BME280;67169;50.268;8.694;2024-03-17T01:00:59;100378.91;;;4.69;78.01
77979;BME280;67169;50.268;8.694;2024-03-17T01:03:25;100390.50;;;4.54;78.99
77979;BME280;67169;50.268;8.694;2024-03-17T01:05:51;100402.97;;;4.43;79.93
77979;BME280;67169;50.268;8.694;2024-03-17T01:08:18;100397.72;;;4.20;80.82
77979;BME280;67169;50.268;8.694;2024-03-17T01:10:46;100412.81;;;4.13;81.67
77979;BME280;67169;50.268;8.694;2024-03-17T01:13:16;100411.06;;;4.00;82.26
77979;BME280;67169;50.268;8.694;2024-03-17T01:15:44;100411.94;;;3.77;83.25
77979;BME280;67169;50.268;8.694;2024-03-17T01:18:09;100420.81;;;3.79;83.97
77979;BME280;67169;50.268;8.694;2024-03-17T01:20:36;100405.75;;;3.80;84.17
77979;BME280;67169;50.268;8.694;2024-03-17T01:23:02;100423.47;;;3.95;84.31
77979;BME280;67169;50.268;8.694;2024-03-17T01:25:29;100408.38;;;3.91;84.36
77979;BME280;67169;50.268;8.694;2024-03-17T01:27:55;100426.13;;;3.90;84.50
77979;BME280;67169;50.268;8.694;2024-03-17T01:30:23;100407.50;;;3.84;84.90
77979;BME280;67169;50.268;8.694;2024-03-17T01:32:50;100411.03;;;3.81;85.34
77979;BME280;67169;50.268;8.694;2024-03-17T01:35:17;100387.09;;;3.57;85.61
77979;BME280;67169;50.268;8.694;2024-03-17T01:37:43;100401.31;;;3.65;86.05
77979;BME280;67169;50.268;8.694;2024-03-17T01:40:10;100409.28;;;3.59;86.66
77979;BME280;67169;50.268;8.694;2024-03-17T01:42:36;100403.09;;;3.48;87.30
77979;BME280;67169;50.268;8.694;2024-03-17T01:45:20;100408.38;;;3.42;87.94
77979;BME280;67169;50.268;8.694;2024-03-17T01:47:50;100392.38;;;3.23;88.62
77979;BME280;67169;50.268;8.694;2024-03-17T01:50:16;100417.22;;;3.31;88.78
77979;BME280;67169;50.268;8.694;2024-03-17T01:52:45;100407.50;;;3.30;89.13
77979;BME280;67169;50.268;8.694;2024-03-17T01:55:13;100356.00;;;2.89;89.31
77979;BME280;67169;50.268;8.694;2024-03-17T01:57:39;100397.72;;;3.14;90.03
77979;BME280;67169;50.268;8.694;2024-03-17T02:00:06;100384.38;;;3.05;90.29
77979;BME280;67169;50.268;8.694;2024-03-17T02:02:33;100403.00;;;3.05;90.58
77979;BME280;67169;50.268;8.694;2024-03-17T02:05:02;100403.84;;;2.95;90.94
77979;BME280;67169;50.268;8.694;2024-03-17T02:07:28;100342.66;;;2.63;90.79
77979;BME280;67169;50.268;8.694;2024-03-17T02:09:56;100397.63;;;2.91;91.26
77979;BME280;67169;50.268;8.694;2024-03-17T02:12:21;100399.41;;;2.88;91.44
77979;BME280;67169;50.268;8.694;2024-03-17T02:14:48;100397.63;;;2.83;91.55
77979;BME280;67169;50.268;8.694;2024-03-17T02:17:13;100391.41;;;2.83;91.73
77979;BME280;67169;50.268;8.694;2024-03-17T02:19:40;100402.88;;;2.71;91.90
77979;BME280;67169;50.268;8.694;2024-03-17T02:22:13;100399.31;;;2.66;92.04
77979;BME280;67169;50.268;8.694;2024-03-17T02:24:39;100408.16;;;2.59;92.23
77979;BME280;67169;50.268;8.694;2024-03-17T02:27:05;100408.13;;;2.51;92.51
77979;BME280;67169;50.268;8.694;2024-03-17T02:29:31;100401.88;;;2.45;92.77
77979;BME280;67169;50.268;8.694;2024-03-17T02:31:57;100401.81;;;2.37;92.98
77979;BME280;67169;50.268;8.694;2024-03-17T02:34:23;100403.59;;;2.32;93.27
77979;BME280;67169;50.268;8.694;2024-03-17T02:36:49;100401.81;;;2.32;93.78
77979;BME280;67169;50.268;8.694;2024-03-17T02:39:16;100398.25;;;2.27;93.90
77979;BME280;67169;50.268;8.694;2024-03-17T02:42:00;100396.47;;;2.26;93.98
77979;BME280;67169;50.268;8.694;2024-03-17T02:44:26;100386.66;;;2.16;94.15
77979;BME280;67169;50.268;8.694;2024-03-17T02:46:53;100384.84;;;2.06;94.22
77979;BME280;67169;50.268;8.694;2024-03-17T02:49:19;100388.38;;;2.03;94.51
77979;BME280;67169;50.268;8.694;2024-03-17T02:51:47;100380.34;;;1.96;94.67
77979;BME280;67169;50.268;8.694;2024-03-17T02:54:14;100371.38;;;1.78;94.78
77979;BME280;67169;50.268;8.694;2024-03-17T02:56:42;100384.78;;;1.94;95.00
77979;BME280;67169;50.268;8.694;2024-03-17T02:59:08;100391.84;;;1.95;95.08
77979;BME280;67169;50.268;8.694;2024-03-17T03:01:35;100378.44;;;1.73;95.12
77979;BME280;67169;50.268;8.694;2024-03-17T03:04:01;100364.25;;;1.71;95.39
77979;BME280;67169;50.268;8.694;2024-03-17T03:06:27;100382.91;;;1.80;95.63
77979;BME280;67169;50.268;8.694;2024-03-17T03:08:54;100381.97;;;1.75;95.61
77979;BME280;67169;50.268;8.694;2024-03-17T03:11:20;100376.66;;;1.71;96.11
77979;BME280;67169;50.268;8.694;2024-03-17T03:13:48;100378.44;;;1.73;96.05
77979;BME280;67169;50.268;8.694;2024-03-17T03:16:15;100389.84;;;1.63;96.42
77979;BME280;67169;50.268;8.694;2024-03-17T03:18:43;100385.38;;;1.56;96.58
77979;BME280;67169;50.268;8.694;2024-03-17T03:21:10;100391.53;;;1.52;96.84
77979;BME280;67169;50.268;8.694;2024-03-17T03:23:37;100379.13;;;1.51;96.96
77979;BME280;67169;50.268;8.694;2024-03-17T03:26:03;100392.41;;;1.52;97.12
77979;BME280;67169;50.268;8.694;2024-03-17T03:28:32;100395.97;;;1.56;97.31
77979;BME280;67169;50.268;8.694;2024-03-17T03:31:00;100390.63;;;1.48;97.18
77979;BME280;67169;50.268;8.694;2024-03-17T03:33:27;100387.06;;;1.45;97.14
77979;BME280;67169;50.268;8.694;2024-03-17T03:35:54;100380.81;;;1.39;97.29
77979;BME280;67169;50.268;8.694;2024-03-17T03:38:21;100396.69;;;1.35;97.59
77979;BME280;67169;50.268;8.694;2024-03-17T03:40:48;100402.84;;;1.37;97.81
77979;BME280;67169;50.268;8.694;2024-03-17T03:43:15;100411.69;;;1.37;98.29
77979;BME280;67169;50.268;8.694;2024-03-17T03:45:41;100409.06;;;1.40;98.21
77979;BME280;67169;50.268;8.694;2024-03-17T03:48:09;100405.53;;;1.40;98.31
77979;BME280;67169;50.268;8.694;2024-03-17T03:50:35;100408.22;;;1.41;98.27
77979;BME280;67169;50.268;8.694;2024-03-17T03:53:01;100412.63;;;1.42;98.28
77979;BME280;67169;50.268;8.694;2024-03-17T03:55:28;100411.75;;;1.42;98.50
77979;BME280;67169;50.268;8.694;2024-03-17T03:57:55;100410.88;;;1.41;98.47
77979;BME280;67169;50.268;8.694;2024-03-17T04:00:22;100417.91;;;1.38;98.46
77979;BME280;67169;50.268;8.694;2024-03-17T04:02:50;100386.75;;;1.17;98.66
77979;BME280;67169;50.268;8.694;2024-03-17T04:05:18;100420.50;;;1.32;98.77
77979;BME280;67169;50.268;8.694;2024-03-17T04:07:46;100420.47;;;1.30;98.87
77979;BME280;67169;50.268;8.694;2024-03-17T04:10:13;100424.03;;;1.31;99.02
77979;BME280;67169;50.268;8.694;2024-03-17T04:12:40;100430.16;;;1.28;99.05
77979;BME280;67169;50.268;8.694;2024-03-17T04:15:07;100418.56;;;1.17;99.37
77979;BME280;67169;50.268;8.694;2024-03-17T04:17:35;100422.03;;;1.13;99.27
77979;BME280;67169;50.268;8.694;2024-03-17T04:20:03;100428.22;;;1.12;99.46
77979;BME280;67169;50.268;8.694;2024-03-17T04:22:31;100426.44;;;1.08;99.63
77979;BME280;67169;50.268;8.694;2024-03-17T04:24:57;100429.09;;;1.11;99.77
77979;BME280;67169;50.268;8.694;2024-03-17T04:27:24;100432.59;;;1.10;99.92
77979;BME280;67169;50.268;8.694;2024-03-17T04:29:52;100426.38;;;1.05;99.87
77979;BME280;67169;50.268;8.694;2024-03-17T04:32:19;100433.44;;;1.06;99.93
77979;BME280;67169;50.268;8.694;2024-03-17T04:34:46;100425.47;;;1.03;99.89
77979;BME280;67169;50.268;8.694;2024-03-17T04:37:13;100425.44;;;1.00;99.79
77979;BME280;67169;50.268;8.694;2024-03-17T04:39:42;100424.47;;;0.91;99.77
77979;BME280;67169;50.268;8.694;2024-03-17T04:42:10;100418.25;;;0.86;100.00
77979;BME280;67169;50.268;8.694;2024-03-17T04:44:37;100419.06;;;0.82;100.00
77979;BME280;67169;50.268;8.694;2024-03-17T04:47:04;100412.88;;;0.80;100.00
77979;BME280;67169;50.268;8.694;2024-03-17T04:49:32;100432.38;;;0.87;100.00
77979;BME280;67169;50.268;8.694;2024-03-17T04:51:58;100432.31;;;0.84;100.00
77979;BME280;67169;50.268;8.694;2024-03-17T04:54:25;100431.44;;;0.85;100.00
77979;BME280;67169;50.268;8.694;2024-03-17T04:56:53;100441.19;;;0.89;100.00
77979;BME280;67169;50.268;8.694;2024-03-17T04:59:19;100443.81;;;0.86;100.00
77979;BME280;67169;50.268;8.694;2024-03-17T05:01:46;100438.59;;;0.90;100.00
77979;BME280;67169;50.268;8.694;2024-03-17T05:04:13;100428.84;;;0.86;100.00
77979;BME280;67169;50.268;8.694;2024-03-17T05:06:40;100434.13;;;0.89;100.00
77979;BME280;67169;50.268;8.694;2024-03-17T05:09:11;100431.44;;;0.83;100.00
77979;BME280;67169;50.268;8.694;2024-03-17T05:11:38;100447.41;;;0.92;100.00
77979;BME280;67169;50.268;8.694;2024-03-17T05:14:06;100441.22;;;0.90;100.00
77979;BME280;67169;50.268;8.694;2024-03-17T05:16:33;100443.03;;;0.96;100.00
77979;BME280;67169;50.268;8.694;2024-03-17T05:18:59;100436.94;;;1.02;100.00
77979;BME280;67169;50.268;8.694;2024-03-17T05:21:26;100441.44;;;1.07;100.00
77979;BME280;67169;50.268;8.694;2024-03-17T05:23:55;100439.59;;;1.00;100.00
77979;BME280;67169;50.268;8.694;2024-03-17T05:26:22;100442.19;;;0.99;100.00
77979;BME280;67169;50.268;8.694;2024-03-17T05:28:49;100440.56;;;1.07;100.00
77979;BME280;67169;50.268;8.694;2024-03-17T05:31:18;100439.72;;;1.12;100.00
77979;BME280;67169;50.268;8.694;2024-03-17T05:33:46;100437.97;;;1.14;100.00
77979;BME280;67169;50.268;8.694;2024-03-17T05:36:13;100426.50;;;1.14;100.00
77979;BME280;67169;50.268;8.694;2024-03-17T05:38:39;100441.63;;;1.27;100.00
77979;BME280;67169;50.268;8.694;2024-03-17T05:41:07;100421.22;;;1.20;100.00
77979;BME280;67169;50.268;8.694;2024-03-17T05:43:35;100431.94;;;1.29;100.00
77979;BME280;67169;50.268;8.694;2024-03-17T05:46:04;100444.44;;;1.42;100.00
77979;BME280;67169;50.268;8.694;2024-03-17T05:48:33;100437.34;;;1.38;100.00
77979;BME280;67169;50.268;8.694;2024-03-17T05:51:00;100435.53;;;1.37;100.00
77979;BME280;67169;50.268;8.694;2024-03-17T05:53:27;100452.41;;;1.44;100.00
77979;BME280;67169;50.268;8.694;2024-03-17T05:55:54;100446.28;;;1.48;100.00
77979;BME280;67169;50.268;8.694;2024-03-17T05:58:20;100446.31;;;1.53;100.00
77979;BME280;67169;50.268;8.694;2024-03-17T06:00:48;100430.41;;;1.53;100.00
77979;BME280;67169;50.268;8.694;2024-03-17T06:03:14;100454.38;;;1.68;100.00
77979;BME280;67169;50.268;8.694;2024-03-17T06:05:42;100433.22;;;1.71;100.00
77979;BME280;67169;50.268;8.694;2024-03-17T06:08:09;100438.59;;;1.82;100.00
77979;BME280;67169;50.268;8.694;2024-03-17T06:10:37;100426.19;;;1.76;100.00
77979;BME280;67169;50.268;8.694;2024-03-17T06:13:05;100436.84;;;1.84;100.00
77979;BME280;67169;50.268;8.694;2024-03-17T06:15:32;100452.84;;;1.93;100.00
77979;BME280;67169;50.268;8.694;2024-03-17T06:17:58;100444.03;;;1.99;100.00
77979;BME280;67169;50.268;8.694;2024-03-17T06:20:27;100436.13;;;2.05;100.00
77979;BME280;67169;50.268;8.694;2024-03-17T06:22:55;100437.97;;;2.13;100.00
77979;BME280;67169;50.268;8.694;2024-03-17T06:25:22;100444.22;;;2.22;100.00
77979;BME280;67169;50.268;8.694;2024-03-17T06:27:49;100426.50;;;2.19;100.00
77979;BME280;67169;50.268;8.694;2024-03-17T06:30:15;100434.56;;;2.36;100.00
77979;BME280;67169;50.268;8.694;2024-03-17T06:32:42;100443.44;;;2.43;100.00
77979;BME280;67169;50.268;8.694;2024-03-17T06:35:10;100440.88;;;2.56;100.00
77979;BME280;67169;50.268;8.694;2024-03-17T06:37:37;100413.41;;;2.50;100.00
77979;BME280;67169;50.268;8.694;2024-03-17T06:40:07;100441.84;;;2.77;100.00
77979;BME280;67169;50.268;8.694;2024-03-17T06:42:37;100438.34;;;2.85;100.00
77979;BME280;67169;50.268;8.694;2024-03-17T06:45:04;100409.13;;;2.84;100.00
77979;BME280;67169;50.268;8.694;2024-03-17T06:47:31;100431.31;;;3.06;100.00
77979;BME280;67169;50.268;8.694;2024-03-17T06:49:57;100431.34;;;3.09;100.00
77979;BME280;67169;50.268;8.694;2024-03-17T06:52:23;100426.06;;;3.23;100.00
77979;BME280;67169;50.268;8.694;2024-03-17T06:54:50;100426.09;;;3.30;100.00
77979;BME280;67169;50.268;8.694;2024-03-17T06:57:18;100422.56;;;3.41;100.00
77979;BME280;67169;50.268;8.694;2024-03-17T06:59:44;100414.59;;;3.38;100.00
77979;BME280;67169;50.268;8.694;2024-03-17T07:02:13;100420.78;;;3.50;100.00
77979;BME280;67169;50.268;8.694;2024-03-17T07:04:42;100415.50;;;3.55;100.00
77979;BME280;67169;50.268;8.694;2024-03-17T07:07:08;100407.53;;;3.72;99.30
77979;BME280;67169;50.268;8.694;2024-03-17T07:09:34;100406.63;;;3.90;98.64
77979;BME280;67169;50.268;8.694;2024-03-17T07:12:01;100394.19;;;4.10;97.85
77979;BME280;67169;50.268;8.694;2024-03-17T07:14:29;100395.03;;;4.26;96.92
77979;BME280;67169;50.268;8.694;2024-03-17T07:16:56;100389.69;;;4.32;95.70
77979;BME280;67169;50.268;8.694;2024-03-17T07:19:23;100391.47;;;4.35;94.44
77979;BME280;67169;50.268;8.694;2024-03-17T07:21:50;100390.44;;;4.69;93.98
77979;BME280;67169;50.268;8.694;2024-03-17T07:24:16;100369.00;;;4.94;92.93
77979;BME280;67169;50.268;8.694;2024-03-17T07:26:43;100374.97;;;5.36;91.81
77979;BME280;67169;50.268;8.694;2024-03-17T07:29:09;100369.78;;;6.24;90.38
77979;BME280;67169;50.268;8.694;2024-03-17T07:31:37;100353.63;;;6.33;88.55
77979;BME280;67169;50.268;8.694;2024-03-17T07:34:04;100346.88;;;5.98;86.30
77979;BME280;67169;50.268;8.694;2024-03-17T07:36:30;100346.97;;;5.89;85.16
77979;BME280;67169;50.268;8.694;2024-03-17T07:38:57;100340.91;;;5.70;84.47
77979;BME280;67169;50.268;8.694;2024-03-17T07:41:23;100341.69;;;5.83;84.18
77979;BME280;67169;50.268;8.694;2024-03-17T07:43:50;100339.72;;;6.03;83.27
77979;BME280;67169;50.268;8.694;2024-03-17T07:46:16;100334.09;;;6.31;82.69
77979;BME280;67169;50.268;8.694;2024-03-17T07:48:44;100349.78;;;6.58;82.22
77979;BME280;67169;50.268;8.694;2024-03-17T07:51:13;100338.75;;;6.83;81.72
77979;BME280;67169;50.268;8.694;2024-03-17T07:53:41;100327.25;;;7.38;80.42
77979;BME280;67169;50.268;8.694;2024-03-17T07:56:08;100324.34;;;8.03;78.32
77979;BME280;67169;50.268;8.694;2024-03-17T07:58:36;100290.34;;;13.19;71.15
77979;BME280;67169;50.268;8.694;2024-03-17T08:01:05;100235.88;;;18.49;52.75
77979;BME280;67169;50.268;8.694;2024-03-17T08:03:32;100246.59;;;15.31;50.23
77979;BME280;67169;50.268;8.694;2024-03-17T08:06:01;100285.75;;;12.76;56.13
77979;BME280;67169;50.268;8.694;2024-03-17T08:08:29;100324.41;;;10.64;60.62
77979;BME280;67169;50.268;8.694;2024-03-17T08:10:56;100334.53;;;9.16;63.44
77979;BME280;67169;50.268;8.694;2024-03-17T08:13:23;100315.81;;;9.13;66.15
77979;BME280;67169;50.268;8.694;2024-03-17T08:15:55;100343.75;;;9.77;66.45
77979;BME280;67169;50.268;8.694;2024-03-17T08:18:21;100319.91;;;9.29;66.69
77979;BME280;67169;50.268;8.694;2024-03-17T08:20:47;100336.59;;;9.78;66.87
77979;BME280;67169;50.268;8.694;2024-03-17T08:23:15;100333.94;;;10.10;66.90
77979;BME280;67169;50.268;8.694;2024-03-17T08:25:41;100326.03;;;10.04;65.34
77979;BME280;67169;50.268;8.694;2024-03-17T08:28:08;100328.84;;;9.99;64.62
77979;BME280;67169;50.268;8.694;2024-03-17T08:30:34;100333.72;;;9.85;65.13
77979;BME280;67169;50.268;8.694;2024-03-17T08:33:01;100335.81;;;9.37;65.32
77979;BME280;67169;50.268;8.694;2024-03-17T08:35:27;100328.53;;;9.78;64.47
77979;BME280;67169;50.268;8.694;2024-03-17T08:37:54;100332.56;;;9.94;63.94
77979;BME280;67169;50.268;8.694;2024-03-17T08:40:22;100331.09;;;10.15;63.71
77979;BME280;67169;50.268;8.694;2024-03-17T08:42:48;100319.69;;;10.07;62.31
77979;BME280;67169;50.268;8.694;2024-03-17T08:45:15;100301.00;;;9.32;62.52
77979;BME280;67169;50.268;8.694;2024-03-17T08:47:42;100325.94;;;9.74;63.69
77979;BME280;67169;50.268;8.694;2024-03-17T08:50:09;100324.13;;;10.08;62.75
77979;BME280;67169;50.268;8.694;2024-03-17T08:52:37;100318.66;;;10.12;63.10
77979;BME280;67169;50.268;8.694;2024-03-17T08:55:05;100306.09;;;10.13;62.61
77979;BME280;67169;50.268;8.694;2024-03-17T08:57:36;100314.31;;;10.07;62.82
77979;BME280;67169;50.268;8.694;2024-03-17T09:00:03;100326.69;;;9.80;63.80
77979;BME280;67169;50.268;8.694;2024-03-17T09:02:30;100321.78;;;9.61;64.43
77979;BME280;67169;50.268;8.694;2024-03-17T09:04:56;100331.81;;;10.21;65.29
77979;BME280;67169;50.268;8.694;2024-03-17T09:07:23;100311.16;;;9.91;64.04
77979;BME280;67169;50.268;8.694;2024-03-17T09:09:49;100309.19;;;9.97;63.21
77979;BME280;67169;50.268;8.694;2024-03-17T09:12:16;100315.19;;;10.41;63.14
77979;BME280;67169;50.268;8.694;2024-03-17T09:14:47;100307.94;;;9.78;62.15
77979;BME280;67169;50.268;8.694;2024-03-17T09:17:13;100306.31;;;9.71;62.65
77979;BME280;67169;50.268;8.694;2024-03-17T09:19:40;100321.28;;;10.14;62.86
77979;BME280;67169;50.268;8.694;2024-03-17T09:22:06;100325.13;;;10.69;63.34
77979;BME280;67169;50.268;8.694;2024-03-17T09:24:33;100307.16;;;10.71;63.88
77979;BME280;67169;50.268;8.694;2024-03-17T09:26:59;100321.50;;;10.39;62.23
77979;BME280;67169;50.268;8.694;2024-03-17T09:29:25;100297.97;;;10.78;61.63
77979;BME280;67169;50.268;8.694;2024-03-17T09:31:53;100309.59;;;11.36;61.35
77979;BME280;67169;50.268;8.694;2024-03-17T09:34:20;100303.72;;;10.35;60.88
77979;BME280;67169;50.268;8.694;2024-03-17T09:36:46;100296.97;;;10.18;61.33
77979;BME280;67169;50.268;8.694;2024-03-17T09:39:13;100308.81;;;9.77;62.39
77979;BME280;67169;50.268;8.694;2024-03-17T09:41:39;100312.66;;;9.68;62.71
77979;BME280;67169;50.268;8.694;2024-03-17T09:44:09;100302.84;;;10.02;63.31
77979;BME280;67169;50.268;8.694;2024-03-17T09:46:38;100308.22;;;9.66;63.14
77979;BME280;67169;50.268;8.694;2024-03-17T09:49:09;100301.91;;;10.35;62.80
77979;BME280;67169;50.268;8.694;2024-03-17T09:51:41;100290.72;;;10.18;62.30
77979;BME280;67169;50.268;8.694;2024-03-17T09:54:16;100297.84;;;10.52;62.04
77979;BME280;67169;50.268;8.694;2024-03-17T09:56:43;100307.66;;;9.89;63.56
77979;BME280;67169;50.268;8.694;2024-03-17T09:59:10;100306.34;;;10.04;64.04
77979;BME280;67169;50.268;8.694;2024-03-17T10:01:36;100292.97;;;10.01;64.13
77979;BME280;67169;50.268;8.694;2024-03-17T10:04:03;100300.59;;;10.17;63.83
77979;BME280;67169;50.268;8.694;2024-03-17T10:06:31;100291.03;;;9.73;63.71
77979;BME280;67169;50.268;8.694;2024-03-17T10:08:58;100294.06;;;10.28;64.22
77979;BME280;67169;50.268;8.694;2024-03-17T10:11:33;100265.84;;;10.72;63.33
77979;BME280;67169;50.268;8.694;2024-03-17T10:14:01;100269.56;;;10.68;62.37
77979;BME280;67169;50.268;8.694;2024-03-17T10:16:29;100262.66;;;10.59;62.31
77979;BME280;67169;50.268;8.694;2024-03-17T10:19:10;100265.88;;;11.00;62.21
77979;BME280;67169;50.268;8.694;2024-03-17T10:21:37;100272.69;;;11.38;61.74
77979;BME280;67169;50.268;8.694;2024-03-17T10:24:05;100267.41;;;11.09;61.89
77979;BME280;67169;50.268;8.694;2024-03-17T10:26:42;100272.91;;;11.59;62.99
77979;BME280;67169;50.268;8.694;2024-03-17T10:29:20;100258.78;;;12.04;61.28
77979;BME280;67169;50.268;8.694;2024-03-17T10:31:47;100250.09;;;11.69;60.48
77979;BME280;67169;50.268;8.694;2024-03-17T10:34:15;100257.88;;;10.99;60.96
77979;BME280;67169;50.268;8.694;2024-03-17T10:36:45;100261.88;;;10.85;61.94
77979;BME280;67169;50.268;8.694;2024-03-17T10:39:23;100237.56;;;11.68;60.49
77979;BME280;67169;50.268;8.694;2024-03-17T10:41:56;100219.78;;;11.89;59.27
77979;BME280;67169;50.268;8.694;2024-03-17T10:44:24;100240.31;;;12.42;58.80
77979;BME280;67169;50.268;8.694;2024-03-17T10:46:53;100244.88;;;11.91;58.55
77979;BME280;67169;50.268;8.694;2024-03-17T10:49:21;100256.78;;;13.26;60.87
77979;BME280;67169;50.268;8.694;2024-03-17T10:51:53;100224.28;;;12.84;57.75
77979;BME280;67169;50.268;8.694;2024-03-17T10:54:24;100236.44;;;12.49;57.57
77979;BME280;67169;50.268;8.694;2024-03-17T10:56:55;100241.47;;;12.81;56.75
77979;BME280;67169;50.268;8.694;2024-03-17T10:59:28;100223.44;;;12.60;56.46
77979;BME280;67169;50.268;8.694;2024-03-17T11:02:01;100240.66;;;13.23;55.82
77979;BME280;67169;50.268;8.694;2024-03-17T11:04:28;100227.22;;;12.31;56.44
77979;BME280;67169;50.268;8.694;2024-03-17T11:06:56;100221.88;;;12.06;57.90
77979;BME280;67169;50.268;8.694;2024-03-17T11:09:24;100197.84;;;12.23;56.78
77979;BME280;67169;50.268;8.694;2024-03-17T11:11:50;100232.81;;;12.50;57.39
77979;BME280;67169;50.268;8.694;2024-03-17T11:14:17;100221.66;;;13.04;57.18
77979;BME280;67169;50.268;8.694;2024-03-17T11:16:45;100233.94;;;13.96;56.94
77979;BME280;67169;50.268;8.694;2024-03-17T11:19:14;100230.31;;;13.35;57.09
77979;BME280;67169;50.268;8.694;2024-03-17T11:21:40;100224.81;;;13.14;55.65
77979;BME280;67169;50.268;8.694;2024-03-17T11:24:18;100214.34;;;13.71;55.06
77979;BME280;67169;50.268;8.694;2024-03-17T11:26:45;100214.72;;;12.28;56.27
77979;BME280;67169;50.268;8.694;2024-03-17T11:29:26;100231.41;;;12.40;56.95
77979;BME280;67169;50.268;8.694;2024-03-17T11:31:53;100228.97;;;12.55;57.59
77979;BME280;67169;50.268;8.694;2024-03-17T11:34:31;100222.56;;;13.03;56.82
77979;BME280;67169;50.268;8.694;2024-03-17T11:36:58;100209.94;;;13.48;55.85
77979;BME280;67169;50.268;8.694;2024-03-17T11:42:26;100205.53;;;13.25;54.73
77979;BME280;67169;50.268;8.694;2024-03-17T11:44:55;100225.78;;;12.46;56.29
77979;BME280;67169;50.268;8.694;2024-03-17T11:47:21;100212.81;;;12.32;57.32
77979;BME280;67169;50.268;8.694;2024-03-17T11:49:50;100185.31;;;12.22;57.45
77979;BME280;67169;50.268;8.694;2024-03-17T11:52:16;100223.63;;;11.82;59.06
77979;BME280;67169;50.268;8.694;2024-03-17T11:54:44;100242.78;;;11.99;59.56
77979;BME280;67169;50.268;8.694;2024-03-17T11:57:11;100226.22;;;11.58;59.77
77979;BME280;67169;50.268;8.694;2024-03-17T11:59:39;100228.84;;;11.86;59.99
77979;BME280;67169;50.268;8.694;2024-03-17T12:02:10;100219.31;;;11.76;60.30
77979;BME280;67169;50.268;8.694;2024-03-17T12:04:43;100221.28;;;12.21;59.28
77979;BME280;67169;50.268;8.694;2024-03-17T12:07:12;100207.09;;;11.93;59.42
77979;BME280;67169;50.268;8.694;2024-03-17T12:09:40;100211.69;;;11.64;59.48
77979;BME280;67169;50.268;8.694;2024-03-17T12:12:08;100208.63;;;11.73;59.34
77979;BME280;67169;50.268;8.694;2024-03-17T12:14:36;100202.00;;;12.08;59.23
77979;BME280;67169;50.268;8.694;2024-03-17T12:17:04;100197.84;;;12.23;58.41
77979;BME280;67169;50.268;8.694;2024-03-17T12:19:32;100207.53;;;11.79;59.51
77979;BME280;67169;50.268;8.694;2024-03-17T12:21:59;100209.16;;;12.09;59.74
77979;BME280;67169;50.268;8.694;2024-03-17T12:24:26;100218.34;;;12.29;59.95
77979;BME280;67169;50.268;8.694;2024-03-17T12:26:53;100198.06;;;11.94;59.24
77979;BME280;67169;50.268;8.694;2024-03-17T12:29:26;100199.13;;;12.13;59.62
77979;BME280;67169;50.268;8.694;2024-03-17T12:31:54;100184.03;;;12.09;59.44
77979;BME280;67169;50.268;8.694;2024-03-17T12:34:25;100201.84;;;12.13;59.65
77979;BME280;67169;50.268;8.694;2024-03-17T12:36:51;100201.63;;;12.19;58.94
77979;BME280;67169;50.268;8.694;2024-03-17T12:39:19;100186.31;;;12.20;58.92
77979;BME280;67169;50.268;8.694;2024-03-17T12:41:45;100191.28;;;12.07;58.78
77979;BME280;67169;50.268;8.694;2024-03-17T12:44:22;100187.06;;;12.23;58.71
77979;BME280;67169;50.268;8.694;2024-03-17T12:46:47;100180.38;;;12.33;58.46
77979;BME280;67169;50.268;8.694;2024-03-17T12:49:14;100178.97;;;12.47;58.39
77979;BME280;67169;50.268;8.694;2024-03-17T12:51:41;100186.31;;;12.20;58.97
77979;BME280;67169;50.268;8.694;2024-03-17T12:54:13;100184.28;;;12.25;58.82
77979;BME280;67169;50.268;8.694;2024-03-17T12:56:39;100173.59;;;12.23;58.94
77979;BME280;67169;50.268;8.694;2024-03-17T12:59:23;100172.00;;;12.18;58.99
77979;BME280;67169;50.268;8.694;2024-03-17T13:02:10;100172.50;;;12.04;59.60